sensor_id;sensor_type;location;lat;lon;timestamp;P1;durP1;ratioP1;P2;durP2;ratioP2
45686;SDS011;31399;51.176;7.776;2023-06-14T00:08:07;7.93;;;3.72;;
45686;SDS011;31399;51.176;7.776;2023-06-14T00:14:24;7.75;;;3.90;;
45686;SDS011;31399;51.176;7.776;2023-06-14T00:16:51;5.18;;;3.97;;
45686;SDS011;31399;51.176;7.776;2023-06-14T00:19:19;4.63;;;3.53;;
45686;SDS011;31399;51.176;7.776;2023-06-14T00:21:49;8.00;;;3.60;;
45686;SDS011;31399;51.176;7.776;2023-06-14T00:24:16;5.25;;;4.07;;
45686;SDS011;31399;51.176;7.776;2023-06-14T00:26:48;6.28;;;3.88;;
45686;SDS011;31399;51.176;7.776;2023-06-14T00:29:15;5.03;;;3.58;;
45686;SDS011;31399;51.176;7.776;2023-06-14T00:31:41;4.95;;;2.97;;
45686;SDS011;31399;51.176;7.776;2023-06-14T00:34:11;7.53;;;3.17;;
45686;SDS011;31399;51.176;7.776;2023-06-14T00:43:26;6.95;;;3.63;;
45686;SDS011;31399;51.176;7.776;2023-06-14T00:45:53;7.38;;;3.75;;
45686;SDS011;31399;51.176;7.776;2023-06-14T00:48:19;5.82;;;3.97;;
45686;SDS011;31399;51.176;7.776;2023-06-14T00:50:46;6.70;;;4.05;;
45686;SDS011;31399;51.176;7.776;2023-06-14T00:53:15;5.07;;;3.58;;
45686;SDS011;31399;51.176;7.776;2023-06-14T00:55:43;6.88;;;3.75;;
45686;SDS011;31399;51.176;7.776;2023-06-14T00:58:10;9.55;;;3.97;;
45686;SDS011;31399;51.176;7.776;2023-06-14T01:00:37;5.43;;;3.75;;
45686;SDS011;31399;51.176;7.776;2023-06-14T01:03:04;5.35;;;3.50;;
45686;SDS011;31399;51.176;7.776;2023-06-14T01:05:35;7.03;;;3.78;;
45686;SDS011;31399;51.176;7.776;2023-06-14T01:11:48;4.72;;;2.88;;
45686;SDS011;31399;51.176;7.776;2023-06-14T01:14:18;7.38;;;3.67;;
45686;SDS011;31399;51.176;7.776;2023-06-14T01:16:50;5.95;;;3.65;;
45686;SDS011;31399;51.176;7.776;2023-06-14T01:23:08;6.63;;;2.95;;
45686;SDS011;31399;51.176;7.776;2023-06-14T01:29:23;4.10;;;2.95;;
45686;SDS011;31399;51.176;7.776;2023-06-14T01:31:51;6.38;;;3.13;;
45686;SDS011;31399;51.176;7.776;2023-06-14T01:34:20;8.50;;;3.35;;
45686;SDS011;31399;51.176;7.776;2023-06-14T01:36:46;5.85;;;3.50;;
45686;SDS011;31399;51.176;7.776;2023-06-14T01:39:14;8.23;;;3.72;;
45686;SDS011;31399;51.176;7.776;2023-06-14T01:41:44;3.55;;;2.83;;
45686;SDS011;31399;51.176;7.776;2023-06-14T01:44:12;5.00;;;2.67;;
45686;SDS011;31399;51.176;7.776;2023-06-14T01:46:40;4.78;;;2.85;;
45686;SDS011;31399;51.176;7.776;2023-06-14T01:49:07;6.90;;;2.88;;
45686;SDS011;31399;51.176;7.776;2023-06-14T01:51:34;5.28;;;2.60;;
45686;SDS011;31399;51.176;7.776;2023-06-14T01:54:01;4.13;;;2.60;;
45686;SDS011;31399;51.176;7.776;2023-06-14T01:56:29;3.80;;;2.80;;
45686;SDS011;31399;51.176;7.776;2023-06-14T01:58:56;4.90;;;2.63;;
45686;SDS011;31399;51.176;7.776;2023-06-14T02:01:23;4.95;;;2.70;;
45686;SDS011;31399;51.176;7.776;2023-06-14T02:03:50;5.25;;;2.90;;
45686;SDS011;31399;51.176;7.776;2023-06-14T02:06:17;2.97;;;2.55;;
45686;SDS011;31399;51.176;7.776;2023-06-14T02:08:44;5.55;;;2.42;;
45686;SDS011;31399;51.176;7.776;2023-06-14T02:11:11;5.70;;;2.88;;
45686;SDS011;31399;51.176;7.776;2023-06-14T02:13:37;3.78;;;2.45;;
45686;SDS011;31399;51.176;7.776;2023-06-14T02:16:04;3.83;;;2.45;;
45686;SDS011;31399;51.176;7.776;2023-06-14T02:18:34;5.70;;;2.58;;
45686;SDS011;31399;51.176;7.776;2023-06-14T02:21:04;4.78;;;2.65;;
45686;SDS011;31399;51.176;7.776;2023-06-14T02:23:31;3.45;;;2.63;;
45686;SDS011;31399;51.176;7.776;2023-06-14T02:26:00;5.97;;;2.10;;
45686;SDS011;31399;51.176;7.776;2023-06-14T02:28:29;4.05;;;2.47;;
45686;SDS011;31399;51.176;7.776;2023-06-14T02:30:56;4.50;;;2.30;;
45686;SDS011;31399;51.176;7.776;2023-06-14T02:33:22;5.45;;;2.70;;
45686;SDS011;31399;51.176;7.776;2023-06-14T02:35:49;4.88;;;2.80;;
45686;SDS011;31399;51.176;7.776;2023-06-14T02:38:16;3.58;;;2.83;;
45686;SDS011;31399;51.176;7.776;2023-06-14T02:40:42;4.50;;;2.72;;
45686;SDS011;31399;51.176;7.776;2023-06-14T02:43:09;6.88;;;2.83;;
45686;SDS011;31399;51.176;7.776;2023-06-14T02:45:36;4.65;;;2.50;;
45686;SDS011;31399;51.176;7.776;2023-06-14T02:48:02;4.28;;;2.67;;
45686;SDS011;31399;51.176;7.776;2023-06-14T02:50:29;9.27;;;2.47;;
45686;SDS011;31399;51.176;7.776;2023-06-14T02:52:56;4.50;;;2.70;;
45686;SDS011;31399;51.176;7.776;2023-06-14T02:55:23;4.78;;;2.72;;
45686;SDS011;31399;51.176;7.776;2023-06-14T02:57:50;6.47;;;2.40;;
45686;SDS011;31399;51.176;7.776;2023-06-14T03:04:11;8.90;;;3.08;;
45686;SDS011;31399;51.176;7.776;2023-06-14T03:10:26;6.57;;;2.50;;
45686;SDS011;31399;51.176;7.776;2023-06-14T03:16:58;11.00;;;2.50;;
45686;SDS011;31399;51.176;7.776;2023-06-14T03:19:26;5.18;;;2.65;;
45686;SDS011;31399;51.176;7.776;2023-06-14T03:21:53;4.30;;;2.60;;
45686;SDS011;31399;51.176;7.776;2023-06-14T03:24:37;4.75;;;2.20;;
45686;SDS011;31399;51.176;7.776;2023-06-14T03:30:32;3.55;;;2.60;;
45686;SDS011;31399;51.176;7.776;2023-06-14T03:36:53;5.18;;;2.75;;
45686;SDS011;31399;51.176;7.776;2023-06-14T03:43:25;6.65;;;2.50;;
45686;SDS011;31399;51.176;7.776;2023-06-14T03:46:01;6.38;;;2.47;;
45686;SDS011;31399;51.176;7.776;2023-06-14T03:48:28;4.70;;;2.42;;
45686;SDS011;31399;51.176;7.776;2023-06-14T03:50:54;3.45;;;2.47;;
45686;SDS011;31399;51.176;7.776;2023-06-14T03:53:37;7.13;;;2.85;;
45686;SDS011;31399;51.176;7.776;2023-06-14T04:00:14;3.90;;;2.50;;
45686;SDS011;31399;51.176;7.776;2023-06-14T04:06:23;5.68;;;2.50;;
45686;SDS011;31399;51.176;7.776;2023-06-14T04:12:48;2.92;;;2.05;;
45686;SDS011;31399;51.176;7.776;2023-06-14T04:19:07;4.80;;;2.40;;
45686;SDS011;31399;51.176;7.776;2023-06-14T04:25:26;5.53;;;2.90;;
45686;SDS011;31399;51.176;7.776;2023-06-14T04:31:48;4.18;;;2.45;;
45686;SDS011;31399;51.176;7.776;2023-06-14T04:34:15;9.55;;;2.13;;
45686;SDS011;31399;51.176;7.776;2023-06-14T04:36:43;3.47;;;2.10;;
45686;SDS011;31399;51.176;7.776;2023-06-14T04:39:16;3.42;;;2.63;;
45686;SDS011;31399;51.176;7.776;2023-06-14T04:41:44;6.47;;;2.72;;
45686;SDS011;31399;51.176;7.776;2023-06-14T04:44:19;5.22;;;2.00;;
45686;SDS011;31399;51.176;7.776;2023-06-14T04:46:50;3.05;;;2.40;;
45686;SDS011;31399;51.176;7.776;2023-06-14T04:49:18;4.50;;;2.60;;
45686;SDS011;31399;51.176;7.776;2023-06-14T04:57:28;5.75;;;2.47;;
45686;SDS011;31399;51.176;7.776;2023-06-14T04:59:55;6.05;;;3.40;;
45686;SDS011;31399;51.176;7.776;2023-06-14T05:02:33;4.68;;;2.45;;
45686;SDS011;31399;51.176;7.776;2023-06-14T05:19:34;5.65;;;2.40;;
45686;SDS011;31399;51.176;7.776;2023-06-14T05:25:55;4.20;;;2.53;;
45686;SDS011;31399;51.176;7.776;2023-06-14T05:28:23;3.65;;;2.15;;
45686;SDS011;31399;51.176;7.776;2023-06-14T05:30:50;4.65;;;2.40;;
45686;SDS011;31399;51.176;7.776;2023-06-14T05:33:17;3.30;;;2.45;;
45686;SDS011;31399;51.176;7.776;2023-06-14T05:35:44;5.57;;;2.13;;
45686;SDS011;31399;51.176;7.776;2023-06-14T05:38:11;5.72;;;2.55;;
45686;SDS011;31399;51.176;7.776;2023-06-14T05:40:42;5.65;;;2.38;;
45686;SDS011;31399;51.176;7.776;2023-06-14T05:54:33;8.40;;;2.40;;
45686;SDS011;31399;51.176;7.776;2023-06-14T06:00:57;4.72;;;2.08;;
45686;SDS011;31399;51.176;7.776;2023-06-14T06:03:24;3.42;;;2.25;;
45686;SDS011;31399;51.176;7.776;2023-06-14T06:05:51;6.60;;;2.30;;
45686;SDS011;31399;51.176;7.776;2023-06-14T06:08:21;5.70;;;2.38;;
45686;SDS011;31399;51.176;7.776;2023-06-14T06:14:29;2.92;;;1.95;;
45686;SDS011;31399;51.176;7.776;2023-06-14T06:16:55;4.65;;;2.08;;
45686;SDS011;31399;51.176;7.776;2023-06-14T06:19:22;5.15;;;1.90;;
45686;SDS011;31399;51.176;7.776;2023-06-14T06:21:50;3.88;;;1.98;;
45686;SDS011;31399;51.176;7.776;2023-06-14T06:28:10;5.50;;;1.70;;
45686;SDS011;31399;51.176;7.776;2023-06-14T06:34:24;2.72;;;1.83;;
45686;SDS011;31399;51.176;7.776;2023-06-14T06:36:52;6.25;;;1.67;;
45686;SDS011;31399;51.176;7.776;2023-06-14T06:39:18;2.60;;;1.98;;
45686;SDS011;31399;51.176;7.776;2023-06-14T06:41:45;4.68;;;1.92;;
45686;SDS011;31399;51.176;7.776;2023-06-14T06:44:11;3.55;;;1.48;;
45686;SDS011;31399;51.176;7.776;2023-06-14T06:46:39;4.20;;;1.65;;
45686;SDS011;31399;51.176;7.776;2023-06-14T06:49:07;2.85;;;1.42;;
45686;SDS011;31399;51.176;7.776;2023-06-14T06:51:35;4.63;;;1.17;;
45686;SDS011;31399;51.176;7.776;2023-06-14T06:54:03;3.17;;;1.55;;
45686;SDS011;31399;51.176;7.776;2023-06-14T06:56:29;2.28;;;1.33;;
45686;SDS011;31399;51.176;7.776;2023-06-14T06:58:57;5.00;;;1.40;;
45686;SDS011;31399;51.176;7.776;2023-06-14T07:01:24;5.07;;;1.23;;
45686;SDS011;31399;51.176;7.776;2023-06-14T07:03:52;1.73;;;0.95;;
45686;SDS011;31399;51.176;7.776;2023-06-14T07:06:19;1.50;;;0.80;;
45686;SDS011;31399;51.176;7.776;2023-06-14T07:08:46;1.38;;;0.90;;
45686;SDS011;31399;51.176;7.776;2023-06-14T07:11:14;1.40;;;0.90;;
45686;SDS011;31399;51.176;7.776;2023-06-14T07:13:46;4.82;;;0.90;;
45686;SDS011;31399;51.176;7.776;2023-06-14T07:16:13;1.63;;;1.15;;
45686;SDS011;31399;51.176;7.776;2023-06-14T07:18:40;1.58;;;1.00;;
45686;SDS011;31399;51.176;7.776;2023-06-14T07:21:07;3.25;;;1.30;;
45686;SDS011;31399;51.176;7.776;2023-06-14T07:23:33;1.95;;;1.00;;
45686;SDS011;31399;51.176;7.776;2023-06-14T07:26:00;1.95;;;0.90;;
45686;SDS011;31399;51.176;7.776;2023-06-14T07:28:26;1.83;;;0.88;;
45686;SDS011;31399;51.176;7.776;2023-06-14T07:30:53;3.88;;;0.90;;
45686;SDS011;31399;51.176;7.776;2023-06-14T07:37:11;3.80;;;1.02;;
45686;SDS011;31399;51.176;7.776;2023-06-14T07:39:37;1.60;;;0.90;;
45686;SDS011;31399;51.176;7.776;2023-06-14T07:42:04;1.77;;;1.02;;
45686;SDS011;31399;51.176;7.776;2023-06-14T07:44:32;1.02;;;0.70;;
45686;SDS011;31399;51.176;7.776;2023-06-14T07:46:59;4.03;;;1.05;;
45686;SDS011;31399;51.176;7.776;2023-06-14T07:52:32;5.25;;;1.20;;
45686;SDS011;31399;51.176;7.776;2023-06-14T07:54:59;1.70;;;0.70;;
45686;SDS011;31399;51.176;7.776;2023-06-14T07:57:26;4.55;;;1.10;;
45686;SDS011;31399;51.176;7.776;2023-06-14T07:59:53;3.83;;;1.27;;
45686;SDS011;31399;51.176;7.776;2023-06-14T08:02:19;6.57;;;1.08;;
45686;SDS011;31399;51.176;7.776;2023-06-14T08:04:46;2.33;;;0.80;;
45686;SDS011;31399;51.176;7.776;2023-06-14T08:07:14;1.30;;;0.82;;
45686;SDS011;31399;51.176;7.776;2023-06-14T08:09:41;3.83;;;1.20;;
45686;SDS011;31399;51.176;7.776;2023-06-14T08:12:08;3.88;;;0.90;;
45686;SDS011;31399;51.176;7.776;2023-06-14T08:14:36;4.93;;;1.00;;
45686;SDS011;31399;51.176;7.776;2023-06-14T08:17:03;2.95;;;1.10;;
45686;SDS011;31399;51.176;7.776;2023-06-14T08:19:30;2.78;;;1.02;;
45686;SDS011;31399;51.176;7.776;2023-06-14T08:21:57;3.67;;;0.75;;
45686;SDS011;31399;51.176;7.776;2023-06-14T08:24:24;1.58;;;0.90;;
45686;SDS011;31399;51.176;7.776;2023-06-14T08:26:51;2.15;;;0.70;;
45686;SDS011;31399;51.176;7.776;2023-06-14T08:29:18;2.78;;;0.90;;
45686;SDS011;31399;51.176;7.776;2023-06-14T08:31:44;1.95;;;0.68;;
45686;SDS011;31399;51.176;7.776;2023-06-14T08:34:11;1.30;;;0.70;;
45686;SDS011;31399;51.176;7.776;2023-06-14T08:36:38;1.08;;;0.68;;
45686;SDS011;31399;51.176;7.776;2023-06-14T08:39:05;4.82;;;0.90;;
45686;SDS011;31399;51.176;7.776;2023-06-14T08:41:32;1.00;;;0.60;;
45686;SDS011;31399;51.176;7.776;2023-06-14T08:43:59;3.28;;;0.90;;
45686;SDS011;31399;51.176;7.776;2023-06-14T08:46:26;1.20;;;0.60;;
45686;SDS011;31399;51.176;7.776;2023-06-14T08:48:54;1.20;;;0.60;;
45686;SDS011;31399;51.176;7.776;2023-06-14T08:51:23;1.92;;;0.82;;
45686;SDS011;31399;51.176;7.776;2023-06-14T08:53:53;1.10;;;0.70;;
45686;SDS011;31399;51.176;7.776;2023-06-14T08:56:25;1.38;;;0.65;;
45686;SDS011;31399;51.176;7.776;2023-06-14T08:58:54;1.55;;;0.63;;
45686;SDS011;31399;51.176;7.776;2023-06-14T09:01:23;1.67;;;0.85;;
45686;SDS011;31399;51.176;7.776;2023-06-14T09:03:50;0.90;;;0.50;;
45686;SDS011;31399;51.176;7.776;2023-06-14T09:06:17;1.73;;;0.75;;
45686;SDS011;31399;51.176;7.776;2023-06-14T09:08:46;3.28;;;0.90;;
45686;SDS011;31399;51.176;7.776;2023-06-14T09:11:15;1.15;;;0.60;;
45686;SDS011;31399;51.176;7.776;2023-06-14T09:13:45;1.27;;;0.60;;
45686;SDS011;31399;51.176;7.776;2023-06-14T09:16:12;2.40;;;0.75;;
45686;SDS011;31399;51.176;7.776;2023-06-14T09:18:43;2.90;;;1.00;;
45686;SDS011;31399;51.176;7.776;2023-06-14T09:21:12;3.17;;;0.90;;
45686;SDS011;31399;51.176;7.776;2023-06-14T09:23:39;1.23;;;0.73;;
45686;SDS011;31399;51.176;7.776;2023-06-14T09:26:11;1.67;;;0.90;;
45686;SDS011;31399;51.176;7.776;2023-06-14T09:28:42;1.00;;;0.65;;
45686;SDS011;31399;51.176;7.776;2023-06-14T09:31:11;4.72;;;0.77;;
45686;SDS011;31399;51.176;7.776;2023-06-14T09:33:38;0.93;;;0.60;;
45686;SDS011;31399;51.176;7.776;2023-06-14T09:36:09;1.00;;;0.63;;
45686;SDS011;31399;51.176;7.776;2023-06-14T09:38:37;2.75;;;0.50;;
45686;SDS011;31399;51.176;7.776;2023-06-14T09:41:06;1.08;;;0.73;;
45686;SDS011;31399;51.176;7.776;2023-06-14T09:43:33;1.35;;;0.73;;
45686;SDS011;31399;51.176;7.776;2023-06-14T09:46:00;0.88;;;0.60;;
45686;SDS011;31399;51.176;7.776;2023-06-14T09:48:27;1.23;;;0.60;;
45686;SDS011;31399;51.176;7.776;2023-06-14T09:50:55;1.60;;;0.70;;
45686;SDS011;31399;51.176;7.776;2023-06-14T09:53:21;0.68;;;0.50;;
45686;SDS011;31399;51.176;7.776;2023-06-14T09:55:51;1.23;;;0.60;;
45686;SDS011;31399;51.176;7.776;2023-06-14T09:58:19;1.42;;;0.70;;
45686;SDS011;31399;51.176;7.776;2023-06-14T10:00:47;1.58;;;0.70;;
45686;SDS011;31399;51.176;7.776;2023-06-14T10:03:20;1.00;;;0.60;;
45686;SDS011;31399;51.176;7.776;2023-06-14T10:05:51;3.03;;;0.70;;
45686;SDS011;31399;51.176;7.776;2023-06-14T10:08:18;4.40;;;0.70;;
45686;SDS011;31399;51.176;7.776;2023-06-14T10:10:46;3.10;;;0.60;;
45686;SDS011;31399;51.176;7.776;2023-06-14T10:13:13;2.78;;;0.80;;
45686;SDS011;31399;51.176;7.776;2023-06-14T10:24:15;6.28;;;0.80;;
45686;SDS011;31399;51.176;7.776;2023-06-14T10:26:53;1.15;;;0.40;;
45686;SDS011;31399;51.176;7.776;2023-06-14T10:29:25;0.80;;;0.50;;
45686;SDS011;31399;51.176;7.776;2023-06-14T10:31:56;1.52;;;0.80;;
45686;SDS011;31399;51.176;7.776;2023-06-14T10:34:24;0.75;;;0.57;;
45686;SDS011;31399;51.176;7.776;2023-06-14T10:40:29;0.90;;;0.47;;
45686;SDS011;31399;51.176;7.776;2023-06-14T10:42:56;4.53;;;0.82;;
45686;SDS011;31399;51.176;7.776;2023-06-14T10:45:23;1.60;;;0.70;;
45686;SDS011;31399;51.176;7.776;2023-06-14T10:47:50;0.90;;;0.68;;
45686;SDS011;31399;51.176;7.776;2023-06-14T10:50:22;2.85;;;0.77;;
45686;SDS011;31399;51.176;7.776;2023-06-14T10:54:07;0.88;;;0.70;;
45686;SDS011;31399;51.176;7.776;2023-06-14T11:00:27;2.33;;;0.60;;
45686;SDS011;31399;51.176;7.776;2023-06-14T11:05:56;0.93;;;0.80;;
45686;SDS011;31399;51.176;7.776;2023-06-14T11:11:02;3.47;;;0.90;;
45686;SDS011;31399;51.176;7.776;2023-06-14T11:26:29;2.65;;;0.90;;
45686;SDS011;31399;51.176;7.776;2023-06-14T11:28:57;3.63;;;1.10;;
45686;SDS011;31399;51.176;7.776;2023-06-14T11:31:26;3.47;;;0.90;;
45686;SDS011;31399;51.176;7.776;2023-06-14T11:33:54;3.33;;;1.08;;
45686;SDS011;31399;51.176;7.776;2023-06-14T11:36:22;2.67;;;0.90;;
45686;SDS011;31399;51.176;7.776;2023-06-14T11:42:36;2.17;;;0.85;;
45686;SDS011;31399;51.176;7.776;2023-06-14T11:45:03;1.25;;;0.93;;
45686;SDS011;31399;51.176;7.776;2023-06-14T11:47:41;1.60;;;0.85;;
45686;SDS011;31399;51.176;7.776;2023-06-14T11:50:09;1.30;;;0.93;;
45686;SDS011;31399;51.176;7.776;2023-06-14T11:52:36;2.33;;;1.00;;
45686;SDS011;31399;51.176;7.776;2023-06-14T11:55:06;2.95;;;0.82;;
45686;SDS011;31399;51.176;7.776;2023-06-14T11:57:36;1.38;;;0.88;;
45686;SDS011;31399;51.176;7.776;2023-06-14T12:00:07;4.22;;;0.90;;
45686;SDS011;31399;51.176;7.776;2023-06-14T12:06:30;3.88;;;1.02;;
45686;SDS011;31399;51.176;7.776;2023-06-14T12:09:05;1.50;;;1.05;;
45686;SDS011;31399;51.176;7.776;2023-06-14T12:11:34;3.20;;;1.02;;
45686;SDS011;31399;51.176;7.776;2023-06-14T12:14:05;2.38;;;1.40;;
45686;SDS011;31399;51.176;7.776;2023-06-14T12:16:32;2.35;;;1.00;;
45686;SDS011;31399;51.176;7.776;2023-06-14T12:19:01;2.47;;;1.20;;
45686;SDS011;31399;51.176;7.776;2023-06-14T12:22:37;4.22;;;1.40;;
45686;SDS011;31399;51.176;7.776;2023-06-14T12:31:41;3.40;;;0.98;;
45686;SDS011;31399;51.176;7.776;2023-06-14T12:34:08;1.75;;;1.10;;
45686;SDS011;31399;51.176;7.776;2023-06-14T12:36:36;1.77;;;1.00;;
45686;SDS011;31399;51.176;7.776;2023-06-14T12:39:08;1.58;;;1.15;;
45686;SDS011;31399;51.176;7.776;2023-06-14T12:41:35;1.33;;;1.23;;
45686;SDS011;31399;51.176;7.776;2023-06-14T12:47:50;3.75;;;1.35;;
45686;SDS011;31399;51.176;7.776;2023-06-14T12:50:18;1.30;;;1.10;;
45686;SDS011;31399;51.176;7.776;2023-06-14T12:52:46;1.00;;;0.85;;
45686;SDS011;31399;51.176;7.776;2023-06-14T12:55:12;2.25;;;1.30;;
45686;SDS011;31399;51.176;7.776;2023-06-14T12:57:40;1.80;;;0.73;;
45686;SDS011;31399;51.176;7.776;2023-06-14T13:00:07;1.20;;;0.90;;
45686;SDS011;31399;51.176;7.776;2023-06-14T13:02:35;4.75;;;0.77;;
45686;SDS011;31399;51.176;7.776;2023-06-14T13:05:01;2.85;;;0.80;;
45686;SDS011;31399;51.176;7.776;2023-06-14T13:07:30;1.60;;;1.00;;
45686;SDS011;31399;51.176;7.776;2023-06-14T13:09:56;1.40;;;0.80;;
45686;SDS011;31399;51.176;7.776;2023-06-14T13:12:23;1.85;;;1.00;;
45686;SDS011;31399;51.176;7.776;2023-06-14T13:14:50;2.50;;;0.82;;
45686;SDS011;31399;51.176;7.776;2023-06-14T13:17:16;1.52;;;0.90;;
45686;SDS011;31399;51.176;7.776;2023-06-14T13:19:43;1.40;;;0.90;;
45686;SDS011;31399;51.176;7.776;2023-06-14T13:22:09;3.42;;;0.80;;
45686;SDS011;31399;51.176;7.776;2023-06-14T13:24:36;1.65;;;1.10;;
45686;SDS011;31399;51.176;7.776;2023-06-14T13:27:03;2.58;;;1.40;;
45686;SDS011;31399;51.176;7.776;2023-06-14T13:29:30;3.65;;;1.00;;
45686;SDS011;31399;51.176;7.776;2023-06-14T13:31:57;2.45;;;0.88;;
45686;SDS011;31399;51.176;7.776;2023-06-14T13:34:24;1.55;;;0.65;;
45686;SDS011;31399;51.176;7.776;2023-06-14T13:37:05;2.78;;;0.90;;
45686;SDS011;31399;51.176;7.776;2023-06-14T13:43:36;1.85;;;0.88;;
45686;SDS011;31399;51.176;7.776;2023-06-14T13:53:02;1.70;;;1.10;;
45686;SDS011;31399;51.176;7.776;2023-06-14T13:55:29;1.65;;;1.35;;
45686;SDS011;31399;51.176;7.776;2023-06-14T13:57:56;2.15;;;0.95;;
45686;SDS011;31399;51.176;7.776;2023-06-14T14:00:23;2.42;;;1.00;;
45686;SDS011;31399;51.176;7.776;2023-06-14T14:02:52;1.55;;;1.13;;
45686;SDS011;31399;51.176;7.776;2023-06-14T14:05:18;4.43;;;1.25;;
45686;SDS011;31399;51.176;7.776;2023-06-14T14:07:47;1.60;;;1.20;;
45686;SDS011;31399;51.176;7.776;2023-06-14T14:10:14;1.92;;;1.38;;
45686;SDS011;31399;51.176;7.776;2023-06-14T14:12:41;1.50;;;1.02;;
45686;SDS011;31399;51.176;7.776;2023-06-14T14:15:08;1.40;;;1.20;;
45686;SDS011;31399;51.176;7.776;2023-06-14T14:17:39;4.78;;;1.45;;
45686;SDS011;31399;51.176;7.776;2023-06-14T14:20:06;2.65;;;1.40;;
45686;SDS011;31399;51.176;7.776;2023-06-14T14:22:33;4.43;;;1.15;;
45686;SDS011;31399;51.176;7.776;2023-06-14T14:25:00;1.50;;;1.20;;
45686;SDS011;31399;51.176;7.776;2023-06-14T14:27:27;2.63;;;1.35;;
45686;SDS011;31399;51.176;7.776;2023-06-14T14:29:53;1.98;;;1.30;;
45686;SDS011;31399;51.176;7.776;2023-06-14T14:32:20;2.80;;;1.13;;
45686;SDS011;31399;51.176;7.776;2023-06-14T14:34:47;3.05;;;1.40;;
45686;SDS011;31399;51.176;7.776;2023-06-14T14:37:13;1.42;;;1.30;;
45686;SDS011;31399;51.176;7.776;2023-06-14T14:39:41;4.88;;;1.45;;
45686;SDS011;31399;51.176;7.776;2023-06-14T14:42:08;2.28;;;1.30;;
45686;SDS011;31399;51.176;7.776;2023-06-14T14:48:16;1.70;;;1.50;;
45686;SDS011;31399;51.176;7.776;2023-06-14T14:50:42;6.28;;;1.50;;
45686;SDS011;31399;51.176;7.776;2023-06-14T14:53:09;4.80;;;1.60;;
45686;SDS011;31399;51.176;7.776;2023-06-14T14:55:36;3.10;;;1.08;;
45686;SDS011;31399;51.176;7.776;2023-06-14T14:58:03;2.08;;;1.52;;
45686;SDS011;31399;51.176;7.776;2023-06-14T15:00:31;2.25;;;1.30;;
45686;SDS011;31399;51.176;7.776;2023-06-14T15:06:43;4.18;;;1.30;;
45686;SDS011;31399;51.176;7.776;2023-06-14T15:13:14;3.15;;;1.52;;
45686;SDS011;31399;51.176;7.776;2023-06-14T15:26:08;2.42;;;1.27;;
45686;SDS011;31399;51.176;7.776;2023-06-14T15:40:05;4.82;;;1.67;;
45686;SDS011;31399;51.176;7.776;2023-06-14T15:53:03;1.63;;;1.50;;
45686;SDS011;31399;51.176;7.776;2023-06-14T15:55:48;2.08;;;1.45;;
45686;SDS011;31399;51.176;7.776;2023-06-14T16:02:05;2.03;;;1.42;;
45686;SDS011;31399;51.176;7.776;2023-06-14T16:04:32;3.42;;;1.35;;
45686;SDS011;31399;51.176;7.776;2023-06-14T16:06:59;1.60;;;1.40;;
45686;SDS011;31399;51.176;7.776;2023-06-14T16:09:26;2.08;;;1.52;;
45686;SDS011;31399;51.176;7.776;2023-06-14T16:11:52;5.05;;;1.50;;
45686;SDS011;31399;51.176;7.776;2023-06-14T16:14:23;5.78;;;1.75;;
45686;SDS011;31399;51.176;7.776;2023-06-14T16:16:49;3.83;;;1.50;;
45686;SDS011;31399;51.176;7.776;2023-06-14T16:19:18;1.90;;;1.48;;
45686;SDS011;31399;51.176;7.776;2023-06-14T16:21:45;4.18;;;1.40;;
45686;SDS011;31399;51.176;7.776;2023-06-14T16:24:13;3.42;;;1.52;;
45686;SDS011;31399;51.176;7.776;2023-06-14T16:26:41;3.58;;;1.70;;
45686;SDS011;31399;51.176;7.776;2023-06-14T16:29:08;2.67;;;1.40;;
45686;SDS011;31399;51.176;7.776;2023-06-14T16:31:35;8.27;;;1.40;;
45686;SDS011;31399;51.176;7.776;2023-06-14T16:34:02;3.78;;;1.63;;
45686;SDS011;31399;51.176;7.776;2023-06-14T16:36:31;3.35;;;1.55;;
45686;SDS011;31399;51.176;7.776;2023-06-14T16:39:01;1.67;;;1.40;;
45686;SDS011;31399;51.176;7.776;2023-06-14T16:41:28;3.60;;;1.57;;
45686;SDS011;31399;51.176;7.776;2023-06-14T16:43:54;3.17;;;1.60;;
45686;SDS011;31399;51.176;7.776;2023-06-14T16:46:28;3.15;;;1.58;;
45686;SDS011;31399;51.176;7.776;2023-06-14T16:52:45;3.45;;;1.45;;
45686;SDS011;31399;51.176;7.776;2023-06-14T16:58:18;3.35;;;2.08;;
45686;SDS011;31399;51.176;7.776;2023-06-14T17:00:45;2.17;;;1.75;;
45686;SDS011;31399;51.176;7.776;2023-06-14T17:03:12;4.65;;;1.80;;
45686;SDS011;31399;51.176;7.776;2023-06-14T17:05:55;1.70;;;1.25;;
45686;SDS011;31399;51.176;7.776;2023-06-14T17:08:23;5.20;;;1.40;;
45686;SDS011;31399;51.176;7.776;2023-06-14T17:10:50;2.40;;;1.27;;
45686;SDS011;31399;51.176;7.776;2023-06-14T17:13:17;1.35;;;1.25;;
45686;SDS011;31399;51.176;7.776;2023-06-14T17:15:50;4.18;;;1.50;;
45686;SDS011;31399;51.176;7.776;2023-06-14T17:21:58;1.88;;;1.50;;
45686;SDS011;31399;51.176;7.776;2023-06-14T17:28:21;2.35;;;1.30;;
45686;SDS011;31399;51.176;7.776;2023-06-14T17:30:48;6.70;;;1.50;;
45686;SDS011;31399;51.176;7.776;2023-06-14T17:33:15;1.83;;;1.05;;
45686;SDS011;31399;51.176;7.776;2023-06-14T17:35:46;1.27;;;1.02;;
45686;SDS011;31399;51.176;7.776;2023-06-14T17:38:13;1.40;;;1.00;;
45686;SDS011;31399;51.176;7.776;2023-06-14T17:40:40;2.38;;;1.40;;
45686;SDS011;31399;51.176;7.776;2023-06-14T17:43:27;1.25;;;0.93;;
45686;SDS011;31399;51.176;7.776;2023-06-14T17:49:39;1.80;;;0.98;;
45686;SDS011;31399;51.176;7.776;2023-06-14T17:56:11;0.98;;;0.82;;
45686;SDS011;31399;51.176;7.776;2023-06-14T17:58:37;2.40;;;1.42;;
45686;SDS011;31399;51.176;7.776;2023-06-14T18:01:04;2.10;;;0.75;;
45686;SDS011;31399;51.176;7.776;2023-06-14T18:03:31;3.53;;;1.13;;
45686;SDS011;31399;51.176;7.776;2023-06-14T18:05:58;1.30;;;1.20;;
45686;SDS011;31399;51.176;7.776;2023-06-14T18:08:33;1.58;;;1.30;;
45686;SDS011;31399;51.176;7.776;2023-06-14T18:19:02;2.85;;;1.20;;
45686;SDS011;31399;51.176;7.776;2023-06-14T18:39:55;1.45;;;1.15;;
45686;SDS011;31399;51.176;7.776;2023-06-14T21:19:02;2.55;;;1.63;;
45686;SDS011;31399;51.176;7.776;2023-06-14T21:25:09;2.28;;;1.90;;
45686;SDS011;31399;51.176;7.776;2023-06-14T21:31:36;4.13;;;1.60;;
45686;SDS011;31399;51.176;7.776;2023-06-14T21:34:03;2.25;;;1.70;;
45686;SDS011;31399;51.176;7.776;2023-06-14T21:36:29;5.40;;;1.65;;
45686;SDS011;31399;51.176;7.776;2023-06-14T21:38:58;2.67;;;1.38;;
45686;SDS011;31399;51.176;7.776;2023-06-14T21:41:25;3.45;;;1.65;;
45686;SDS011;31399;51.176;7.776;2023-06-14T21:43:53;3.63;;;1.65;;
45686;SDS011;31399;51.176;7.776;2023-06-14T21:46:20;6.25;;;1.70;;
45686;SDS011;31399;51.176;7.776;2023-06-14T21:52:46;4.75;;;2.15;;
45686;SDS011;31399;51.176;7.776;2023-06-14T21:55:13;4.38;;;1.67;;
45686;SDS011;31399;51.176;7.776;2023-06-14T21:57:39;3.30;;;1.88;;
45686;SDS011;31399;51.176;7.776;2023-06-14T22:00:06;2.03;;;1.80;;
45686;SDS011;31399;51.176;7.776;2023-06-14T22:02:36;5.45;;;1.67;;
45686;SDS011;31399;51.176;7.776;2023-06-14T22:05:03;2.85;;;1.77;;
45686;SDS011;31399;51.176;7.776;2023-06-14T22:07:30;2.90;;;1.90;;
45686;SDS011;31399;51.176;7.776;2023-06-14T22:09:57;2.78;;;1.52;;
45686;SDS011;31399;51.176;7.776;2023-06-14T22:12:25;2.17;;;1.63;;
45686;SDS011;31399;51.176;7.776;2023-06-14T22:14:52;3.78;;;1.77;;
45686;SDS011;31399;51.176;7.776;2023-06-14T22:17:19;3.63;;;1.48;;
45686;SDS011;31399;51.176;7.776;2023-06-14T22:19:49;2.95;;;1.80;;
45686;SDS011;31399;51.176;7.776;2023-06-14T22:22:19;4.85;;;2.10;;
45686;SDS011;31399;51.176;7.776;2023-06-14T22:24:52;3.53;;;2.08;;
45686;SDS011;31399;51.176;7.776;2023-06-14T22:27:19;2.85;;;1.60;;
45686;SDS011;31399;51.176;7.776;2023-06-14T22:29:48;2.78;;;1.98;;
45686;SDS011;31399;51.176;7.776;2023-06-14T22:32:15;2.47;;;1.90;;
45686;SDS011;31399;51.176;7.776;2023-06-14T22:34:43;2.55;;;1.70;;
45686;SDS011;31399;51.176;7.776;2023-06-14T22:37:09;2.30;;;1.40;;